Time;durP1;ratioP1;P1;durP2;ratioP2;P2;SDS_P1;SDS_P2;PMS_P1;PMS_P2;Temp;Humidity;BMP_temperature;BMP_pressure;BME280_temperature;BME280_humidity;BME280_pressure;Samples;Min_cycle;Max_cycle;Signal;HPM_P1;HPM_P2
2023/10/22 00:00:07;;;;;;;3.50;1.90;;;;;;;22.22;62.32;96576.75;5028907;28;20295;-24
2023/10/22 00:02:35;;;;;;;2.27;1.60;;;;;;;22.22;62.35;96581.88;5014562;28;20224;-22
2023/10/22 00:05:05;;;;;;;4.90;2.20;;;;;;;22.22;62.16;96577.63;5015622;28;20203;-23
2023/10/22 00:07:32;;;;;;;3.63;2.10;;;;;;;22.23;62.33;96575.94;5016868;28;20217;-23
2023/10/22 00:09:59;;;;;;;3.27;2.03;;;;;;;22.22;62.24;96571.63;5018712;28;20194;-24
2023/10/22 00:12:26;;;;;;;2.47;2.00;;;;;;;22.21;62.32;96567.38;5026775;28;20253;-23
2023/10/22 00:14:52;;;;;;;3.33;2.10;;;;;;;22.21;62.40;96569.94;5027079;28;20651;-24
2023/10/22 00:17:19;;;;;;;2.77;1.90;;;;;;;22.21;62.64;96567.38;5019104;28;20253;-24
2023/10/22 00:19:46;;;;;;;2.30;1.90;;;;;;;22.21;62.62;96575.91;5022587;28;20214;-23
2023/10/22 00:22:14;;;;;;;5.43;1.90;;;;;;;22.21;62.62;96578.47;5026042;28;20201;-28
2023/10/22 00:24:41;;;;;;;8.23;1.93;;;;;;;22.20;62.46;96576.75;5017341;28;20679;-23
2023/10/22 00:27:07;;;;;;;2.40;1.80;;;;;;;22.21;62.06;96581.03;5026718;28;20296;-23
2023/10/22 00:29:34;;;;;;;3.30;1.90;;;;;;;22.14;62.44;96571.53;5030019;28;20625;-22
2023/10/22 00:32:01;;;;;;;2.20;2.00;;;;;;;22.17;62.03;96583.53;5022296;28;20238;-23
2023/10/22 00:34:27;;;;;;;4.57;2.07;;;;;;;22.22;62.48;96589.56;5025294;28;20251;-28
2023/10/22 00:36:55;;;;;;;3.17;1.67;;;;;;;22.21;62.29;96591.28;5021610;28;20308;-23
2023/10/22 00:39:21;;;;;;;2.83;2.00;;;;;;;22.22;62.34;96598.09;5028562;28;20308;-22
2023/10/22 00:41:48;;;;;;;1.57;1.43;;;;;;;22.23;62.29;96604.09;5025364;28;20209;-24
2023/10/22 00:44:14;;;;;;;2.87;1.77;;;;;;;22.22;62.32;96600.66;5024842;28;20202;-25
2023/10/22 00:46:42;;;;;;;2.53;1.70;;;;;;;22.23;62.41;96601.53;5023255;28;20604;-23
2023/10/22 00:49:08;;;;;;;2.70;1.90;;;;;;;22.22;62.56;96603.22;5013629;28;20193;-24
2023/10/22 00:51:35;;;;;;;2.30;1.80;;;;;;;22.22;62.32;96605.78;5032488;28;20233;-25
2023/10/22 00:54:01;;;;;;;2.60;1.87;;;;;;;22.08;62.56;96581.72;5015534;28;20198;-23
2023/10/22 00:56:28;;;;;;;3.67;2.07;;;;;;;22.21;62.71;96610.88;4997641;28;20268;-23
2023/10/22 00:58:56;;;;;;;4.50;2.00;;;;;;;22.21;62.81;96616.88;5020581;28;20297;-26
2023/10/22 01:01:22;;;;;;;1.83;1.57;;;;;;;22.22;62.74;96616.00;5027727;28;20243;-23
2023/10/22 01:03:49;;;;;;;2.50;1.70;;;;;;;22.22;62.53;96613.47;4997416;28;20785;-23
2023/10/22 01:06:16;;;;;;;1.90;1.70;;;;;;;22.21;62.58;96604.06;5018856;28;20709;-22
2023/10/22 01:08:44;;;;;;;4.10;1.80;;;;;;;22.22;62.40;96610.03;5022193;28;20212;-24
2023/10/22 01:11:11;;;;;;;7.50;2.00;;;;;;;22.22;62.49;96610.03;5022293;28;20195;-22
2023/10/22 01:13:38;;;;;;;3.37;1.67;;;;;;;22.22;62.80;96616.00;5023065;28;20210;-23
2023/10/22 01:16:06;;;;;;;3.47;2.00;;;;;;;22.22;62.54;96616.00;5022177;28;20218;-24
2023/10/22 01:18:33;;;;;;;2.27;1.67;;;;;;;22.23;62.38;96612.59;5028664;28;20268;-23
2023/10/22 01:21:00;;;;;;;5.17;1.90;;;;;;;22.24;62.54;96610.91;5025724;28;20633;-24
2023/10/22 01:23:27;;;;;;;2.13;1.87;;;;;;;22.23;62.53;96610.03;5025196;28;20281;-30
2023/10/22 01:25:53;;;;;;;2.00;1.80;;;;;;;22.23;62.46;96611.75;5026412;28;20233;-23
2023/10/22 01:28:20;;;;;;;3.10;2.07;;;;;;;22.20;62.54;96601.50;5024414;28;20240;-24
2023/10/22 01:30:46;;;;;;;4.67;1.90;;;;;;;22.22;62.65;96613.47;5029454;28;20281;-22
2023/10/22 01:33:13;;;;;;;2.93;2.00;;;;;;;22.23;62.80;96619.44;5005803;28;20202;-25
2023/10/22 01:35:40;;;;;;;2.47;1.90;;;;;;;22.23;62.80;96617.72;5031936;28;20714;-24
2023/10/22 01:38:06;;;;;;;2.43;1.90;;;;;;;22.23;62.55;96619.44;5025922;28;20193;-23
2023/10/22 01:40:33;;;;;;;2.10;1.90;;;;;;;22.23;62.62;96622.00;5021982;28;20218;-23
2023/10/22 01:43:00;;;;;;;3.23;1.90;;;;;;;22.22;62.46;96613.47;5016007;28;20199;-22
2023/10/22 01:45:26;;;;;;;2.83;1.70;;;;;;;22.23;62.65;96622.00;5018428;28;20209;-23
2023/10/22 01:47:53;;;;;;;2.20;1.70;;;;;;;22.23;62.47;96624.56;5019904;28;20256;-22
2023/10/22 01:50:19;;;;;;;4.80;2.03;;;;;;;22.24;62.44;96618.59;5028228;28;20276;-25
2023/10/22 01:52:46;;;;;;;2.03;1.70;;;;;;;22.24;62.49;96622.03;5029990;28;20209;-23
2023/10/22 01:55:13;;;;;;;2.03;1.83;;;;;;;22.24;62.39;96618.59;5027952;28;20202;-22
2023/10/22 01:57:39;;;;;;;3.23;2.00;;;;;;;22.24;62.45;96616.91;5028662;28;20711;-24
2023/10/22 02:00:10;;;;;;;2.00;1.80;;;;;;;22.25;62.53;96621.16;5020710;28;20696;-25
2023/10/22 02:02:38;;;;;;;4.03;1.80;;;;;;;22.24;62.46;96622.03;5031788;28;20206;-23
2023/10/22 02:05:06;;;;;;;2.03;1.60;;;;;;;22.24;62.60;96622.03;5020357;28;20214;-23
2023/10/22 02:07:33;;;;;;;2.67;2.07;;;;;;;22.24;62.61;96609.22;5030310;28;20253;-22
2023/10/22 02:10:00;;;;;;;2.50;1.90;;;;;;;22.24;62.81;96609.22;5029027;28;20277;-23
2023/10/22 02:12:28;;;;;;;3.77;2.20;;;;;;;22.24;62.73;96611.78;5026027;28;20229;-24
2023/10/22 02:14:55;;;;;;;3.10;1.90;;;;;;;22.23;62.51;96609.22;5021150;28;20206;-24
2023/10/22 02:17:21;;;;;;;1.93;1.73;;;;;;;22.23;62.62;96610.03;5020955;28;20218;-23
2023/10/22 02:19:48;;;;;;;2.60;1.83;;;;;;;22.23;62.50;96614.31;5021621;28;20209;-23
2023/10/22 02:22:16;;;;;;;2.93;1.90;;;;;;;22.23;62.55;96616.88;5028722;28;20206;-25
2023/10/22 02:24:42;;;;;;;2.90;1.70;;;;;;;22.19;62.57;96610.00;5022562;28;20205;-24
2023/10/22 02:27:09;;;;;;;4.43;2.30;;;;;;;22.24;62.58;96618.59;5022511;28;20657;-23
2023/10/22 02:29:36;;;;;;;2.73;1.97;;;;;;;22.24;62.61;96621.16;5021714;28;20661;-22
2023/10/22 02:32:06;;;;;;;5.43;1.90;;;;;;;22.24;62.61;96632.25;5028526;28;20209;-24
2023/10/22 02:34:34;;;;;;;3.60;1.93;;;;;;;22.19;62.43;96622.78;5029094;28;20263;-23
2023/10/22 02:37:01;;;;;;;3.87;2.30;;;;;;;22.24;62.27;96639.94;5029550;28;20214;-23
2023/10/22 02:39:28;;;;;;;3.13;1.90;;;;;;;22.25;62.71;96644.22;5020124;28;20201;-23
2023/10/22 02:41:55;;;;;;;2.80;2.00;;;;;;;22.25;62.79;96646.75;5015234;28;20252;-23
2023/10/22 02:44:21;;;;;;;2.07;1.67;;;;;;;22.25;62.82;96643.34;5020507;28;20198;-23
2023/10/22 02:46:48;;;;;;;2.07;1.73;;;;;;;22.24;63.07;96636.50;5026396;28;20542;-23
2023/10/22 02:49:15;;;;;;;2.77;1.90;;;;;;;22.24;62.69;96642.50;5021277;28;20201;-22
2023/10/22 02:51:42;;;;;;;2.40;1.80;;;;;;;22.24;62.73;96649.31;5031511;28;20612;-23
2023/10/22 02:54:08;;;;;;;2.83;2.00;;;;;;;22.24;62.78;96651.88;5023176;28;20440;-22
2023/10/22 02:56:35;;;;;;;3.03;1.90;;;;;;;22.25;62.83;96653.56;5022476;28;20236;-25
2023/10/22 02:59:02;;;;;;;2.90;2.07;;;;;;;22.24;62.61;96647.63;5020170;28;20257;-23
2023/10/22 03:01:30;;;;;;;2.33;1.80;;;;;;;22.24;62.73;96650.19;5021659;28;20221;-23
2023/10/22 03:03:57;;;;;;;4.80;1.83;;;;;;;22.25;62.85;96645.91;5026245;28;20202;-23
2023/10/22 03:06:24;;;;;;;2.70;2.13;;;;;;;22.24;62.55;96665.53;5017439;28;20226;-24
2023/10/22 03:08:50;;;;;;;2.57;1.90;;;;;;;22.25;62.71;96663.81;5023143;28;20209;-22
2023/10/22 03:11:18;;;;;;;4.17;2.27;;;;;;;22.26;62.72;96668.94;5018123;28;20658;-23
2023/10/22 03:13:45;;;;;;;3.43;1.90;;;;;;;22.27;63.00;96664.69;5027253;28;20201;-23
2023/10/22 03:16:15;;;;;;;3.63;2.00;;;;;;;22.26;63.03;96673.22;5012146;28;20697;-24
2023/10/22 03:18:44;;;;;;;2.10;1.90;;;;;;;22.26;62.97;96681.75;5024382;28;20201;-22
2023/10/22 03:21:11;;;;;;;2.63;2.00;;;;;;;22.26;63.02;96681.75;5018975;28;20264;-26
2023/10/22 03:23:41;;;;;;;3.17;1.90;;;;;;;22.25;62.95;96682.59;5020030;28;20201;-23
2023/10/22 03:26:15;;;;;;;3.70;1.93;;;;;;;22.25;63.10;96680.03;5022801;28;20225;-22
2023/10/22 03:28:43;;;;;;;3.00;1.77;;;;;;;22.25;62.89;96677.47;5026067;28;20216;-22
2023/10/22 03:31:09;;;;;;;2.90;1.90;;;;;;;22.24;62.79;96673.22;5027479;28;20281;-23
2023/10/22 03:33:36;;;;;;;3.57;2.03;;;;;;;22.24;62.86;96673.22;5026746;28;20212;-23
2023/10/22 03:36:09;;;;;;;3.60;2.23;;;;;;;22.26;62.99;96663.00;5018447;28;20225;-23
2023/10/22 03:38:36;;;;;;;2.57;1.73;;;;;;;22.26;62.96;96668.13;5027525;28;20743;-23
2023/10/22 03:41:05;;;;;;;2.63;2.00;;;;;;;22.25;62.78;96667.25;5019508;28;20305;-23
2023/10/22 03:43:33;;;;;;;2.20;2.00;;;;;;;22.25;62.94;96657.00;5019555;28;20206;-24
2023/10/22 03:46:00;;;;;;;1.90;1.70;;;;;;;22.25;62.82;96658.69;5018900;28;20728;-25
2023/10/22 03:48:27;;;;;;;3.43;2.27;;;;;;;22.25;62.93;96664.69;5024977;28;20198;-24
2023/10/22 03:50:54;;;;;;;3.57;2.27;;;;;;;22.26;62.94;96665.56;5017908;28;20734;-23
2023/10/22 03:53:23;;;;;;;3.00;1.77;;;;;;;22.26;62.94;96673.22;5026388;28;20198;-23
2023/10/22 03:55:50;;;;;;;3.23;2.17;;;;;;;22.25;63.08;96671.50;5019398;28;20722;-24
2023/10/22 03:58:17;;;;;;;2.63;2.00;;;;;;;22.25;63.13;96671.50;5025271;28;20610;-23
2023/10/22 04:00:43;;;;;;;2.43;1.90;;;;;;;22.24;63.18;96678.34;5022672;28;20672;-23
2023/10/22 04:03:11;;;;;;;3.03;1.80;;;;;;;22.25;63.21;96676.59;5030057;28;20202;-23
2023/10/22 04:05:37;;;;;;;2.83;1.83;;;;;;;22.25;63.03;96682.59;5022313;28;20217;-29
2023/10/22 04:08:04;;;;;;;2.20;1.77;;;;;;;22.24;63.06;96686.00;5025138;28;20289;-24
2023/10/22 04:10:31;;;;;;;1.83;1.70;;;;;;;22.24;63.07;96691.13;5029699;28;20193;-25
2023/10/22 04:12:57;;;;;;;3.10;1.90;;;;;;;22.24;63.00;96692.81;5025183;28;20209;-25
2023/10/22 04:15:24;;;;;;;3.03;1.97;;;;;;;22.25;63.10;96686.84;5029751;28;20234;-23
2023/10/22 04:17:50;;;;;;;2.50;1.83;;;;;;;22.25;62.79;96686.84;5024364;28;20657;-29
2023/10/22 04:20:17;;;;;;;3.23;1.90;;;;;;;22.25;62.99;96689.41;5026852;28;20697;-23
2023/10/22 04:22:44;;;;;;;3.17;2.00;;;;;;;22.25;62.85;96691.97;5028694;28;20288;-23
2023/10/22 04:25:13;;;;;;;1.70;1.60;;;;;;;22.25;62.94;96697.97;5031361;28;20209;-24
2023/10/22 04:27:40;;;;;;;2.70;2.17;;;;;;;22.26;62.95;96699.66;5027048;28;20260;-23
2023/10/22 04:30:07;;;;;;;2.90;1.90;;;;;;;22.26;63.03;96703.94;5030646;28;20205;-28
2023/10/22 04:32:34;;;;;;;4.40;1.80;;;;;;;22.26;63.24;96703.94;5029005;28;20206;-24
2023/10/22 04:35:01;;;;;;;3.23;2.00;;;;;;;22.25;62.97;96710.75;5026613;28;20255;-24
2023/10/22 04:37:27;;;;;;;2.97;1.87;;;;;;;22.20;63.15;96698.75;5027800;28;20713;-23
2023/10/22 04:39:57;;;;;;;1.90;1.70;;;;;;;22.25;63.05;96721.00;5027280;28;20202;-24
2023/10/22 04:42:26;;;;;;;2.77;1.80;;;;;;;22.24;63.50;96721.84;5033713;28;20251;-24
2023/10/22 04:44:53;;;;;;;5.00;1.87;;;;;;;22.25;63.03;96720.13;5027706;28;20576;-24
2023/10/22 04:47:20;;;;;;;2.23;1.70;;;;;;;22.25;62.96;96717.56;5020485;28;20218;-28
2023/10/22 04:49:47;;;;;;;2.20;1.50;;;;;;;22.24;62.98;96726.97;5030905;28;20580;-25
2023/10/22 04:52:30;;;;;;;2.07;1.70;;;;;;;22.24;62.95;96729.53;5030827;28;20285;-24
2023/10/22 04:54:58;;;;;;;2.73;1.90;;;;;;;22.25;63.10;96727.81;5024769;28;20204;-26
2023/10/22 04:57:26;;;;;;;5.43;2.13;;;;;;;22.20;63.22;96714.94;5021083;28;20461;-26
2023/10/22 04:59:53;;;;;;;2.00;1.60;;;;;;;22.26;63.06;96721.88;5013433;28;20201;-26
2023/10/22 05:02:19;;;;;;;2.87;2.03;;;;;;;22.24;62.87;96724.41;5028215;28;20205;-24
2023/10/22 05:04:49;;;;;;;3.33;1.90;;;;;;;22.25;63.13;96731.22;5030517;28;20229;-23
2023/10/22 05:07:16;;;;;;;2.83;1.73;;;;;;;22.25;63.03;96732.91;5029376;28;20692;-23
2023/10/22 05:09:42;;;;;;;3.33;1.93;;;;;;;22.24;63.15;96726.97;5032471;28;20209;-23
2023/10/22 05:12:09;;;;;;;3.37;1.90;;;;;;;22.25;63.19;96732.91;5026863;28;20193;-24
2023/10/22 05:14:36;;;;;;;2.93;2.00;;;;;;;22.24;63.31;96734.63;5033627;28;20217;-24
2023/10/22 05:17:05;;;;;;;2.70;1.80;;;;;;;22.23;63.39;96738.00;5024268;28;20280;-24
2023/10/22 05:19:32;;;;;;;2.10;1.60;;;;;;;22.24;63.29;96736.31;5027970;28;20212;-25
2023/10/22 05:21:58;;;;;;;2.60;1.80;;;;;;;22.23;63.10;96734.63;5032138;28;20221;-23
2023/10/22 05:24:25;;;;;;;2.43;1.90;;;;;;;22.24;63.24;96742.31;5026931;28;20304;-26
2023/10/22 05:26:52;;;;;;;2.10;1.60;;;;;;;22.23;63.20;96753.38;5044246;23;20275;-27
2023/10/22 05:29:19;;;;;;;3.73;1.90;;;;;;;22.24;63.37;96760.22;5032308;28;20642;-27
2023/10/22 05:31:46;;;;;;;2.13;1.53;;;;;;;22.25;63.12;96771.31;5032979;28;20214;-26
2023/10/22 05:34:12;;;;;;;2.87;2.03;;;;;;;22.25;62.74;96771.31;5033522;28;20205;-28
2023/10/22 05:36:39;;;;;;;2.27;1.90;;;;;;;22.25;62.93;96774.75;5025270;28;20226;-28
2023/10/22 05:39:06;;;;;;;1.73;1.63;;;;;;;22.21;63.10;96770.44;5013939;28;20564;-28
2023/10/22 05:41:32;;;;;;;2.10;1.80;;;;;;;22.26;63.04;96783.28;5013203;28;20252;-29
2023/10/22 05:44:01;;;;;;;2.13;1.80;;;;;;;22.26;63.09;96791.81;5012726;28;20735;-27
2023/10/22 05:46:30;;;;;;;1.87;1.50;;;;;;;22.24;63.00;96797.75;5013602;28;20233;-27
2023/10/22 05:48:56;;;;;;;3.27;1.73;;;;;;;22.26;63.16;96796.94;4996506;28;20245;-27
2023/10/22 05:51:23;;;;;;;4.60;2.00;;;;;;;22.25;63.25;96795.22;5011329;28;20202;-26
2023/10/22 05:53:50;;;;;;;2.00;1.60;;;;;;;22.26;63.18;96801.22;5013363;28;20216;-27
2023/10/22 05:56:16;;;;;;;2.90;1.77;;;;;;;22.25;63.29;96804.59;5012582;28;20226;-27
2023/10/22 05:58:43;;;;;;;2.93;1.60;;;;;;;22.25;63.11;96805.47;5012811;28;20225;-26
2023/10/22 06:01:10;;;;;;;2.57;1.63;;;;;;;22.25;63.02;96810.56;5011266;28;20783;-26
2023/10/22 06:03:36;;;;;;;2.47;1.70;;;;;;;22.23;63.05;96809.69;5008226;28;20210;-26
2023/10/22 06:06:03;;;;;;;1.97;1.70;;;;;;;22.26;62.86;96819.13;5007368;28;20226;-26
2023/10/22 06:08:30;;;;;;;1.73;1.53;;;;;;;22.20;62.99;96807.06;5012010;28;20572;-26
2023/10/22 06:10:56;;;;;;;2.30;1.83;;;;;;;22.27;62.55;96818.28;5012024;28;20217;-28
2023/10/22 06:13:23;;;;;;;3.57;2.10;;;;;;;22.27;63.14;96825.97;5012438;28;20264;-26
2023/10/22 06:15:52;;;;;;;1.83;1.43;;;;;;;22.27;63.01;96831.94;5012432;28;20210;-26
2023/10/22 06:18:18;;;;;;;1.90;1.70;;;;;;;22.28;63.09;96825.09;4978623;28;20206;-29
2023/10/22 06:20:45;;;;;;;2.03;1.70;;;;;;;22.27;63.07;96829.38;5012647;28;20222;-27
2023/10/22 06:23:11;;;;;;;3.87;1.70;;;;;;;22.27;63.09;96831.94;5010555;28;20209;-26
2023/10/22 06:25:38;;;;;;;2.47;1.70;;;;;;;22.27;63.00;96834.50;5012768;28;20237;-26
2023/10/22 06:28:05;;;;;;;1.70;1.60;;;;;;;22.27;63.04;96831.06;4994609;28;20238;-26
2023/10/22 06:30:32;;;;;;;3.03;1.57;;;;;;;22.27;63.11;96836.19;5012002;28;20722;-26
2023/10/22 06:32:58;;;;;;;2.10;1.60;;;;;;;22.27;63.12;96852.44;5011964;28;20297;-26
2023/10/22 06:35:28;;;;;;;2.30;1.60;;;;;;;22.27;63.09;96852.44;5012149;28;20248;-30
2023/10/22 06:37:56;;;;;;;2.10;1.70;;;;;;;22.27;63.00;96860.09;5009587;28;20261;-26
2023/10/22 06:40:22;;;;;;;2.57;1.83;;;;;;;22.26;63.08;96858.38;5011893;28;20248;-26
2023/10/22 06:42:49;;;;;;;1.70;1.50;;;;;;;22.26;63.14;96860.06;5006175;28;20736;-26
2023/10/22 06:45:16;;;;;;;2.03;1.50;;;;;;;22.22;63.21;96860.84;5010403;28;20206;-28
2023/10/22 06:47:43;;;;;;;1.97;1.50;;;;;;;22.27;63.04;96880.59;4981191;28;20322;-26
2023/10/22 06:50:13;;;;;;;2.80;1.43;;;;;;;22.27;62.96;96887.38;5009685;28;20270;-26
2023/10/22 06:52:43;;;;;;;2.17;1.80;;;;;;;22.26;63.01;96878.84;5010422;28;20202;-31
2023/10/22 06:55:09;;;;;;;2.87;1.70;;;;;;;22.27;63.13;96888.25;5011626;28;20213;-26
2023/10/22 06:57:36;;;;;;;2.40;1.70;;;;;;;22.29;63.02;96888.28;5004944;28;20233;-27
2023/10/22 07:00:03;;;;;;;1.93;1.57;;;;;;;22.27;62.94;96895.94;4994394;28;20281;-36
2023/10/22 07:02:30;;;;;;;2.27;1.70;;;;;;;22.28;63.03;96899.34;5011438;28;20250;-26
2023/10/22 07:04:57;;;;;;;1.57;1.47;;;;;;;22.27;63.05;96897.63;4978069;28;20202;-29
2023/10/22 07:07:24;;;;;;;3.50;1.60;;;;;;;22.26;63.41;96901.88;5011316;28;20319;-26
2023/10/22 07:09:51;;;;;;;2.03;1.60;;;;;;;22.27;63.16;96910.44;5011969;28;20679;-26
2023/10/22 07:12:17;;;;;;;2.50;1.73;;;;;;;22.27;63.33;96910.44;4994175;28;20226;-26
2023/10/22 07:14:44;;;;;;;1.70;1.40;;;;;;;22.27;63.24;96921.53;5011174;28;20218;-26
2023/10/22 07:17:11;;;;;;;2.03;1.47;;;;;;;22.27;63.22;96920.66;5011688;28;20233;-28
2023/10/22 07:19:37;;;;;;;1.70;1.50;;;;;;;22.26;62.96;96914.69;5007160;28;20290;-26
2023/10/22 07:22:04;;;;;;;1.97;1.57;;;;;;;22.26;63.19;96926.63;5009364;28;20719;-26
2023/10/22 07:24:32;;;;;;;1.90;1.60;;;;;;;22.25;63.08;96924.88;5008830;28;20234;-26
2023/10/22 07:26:58;;;;;;;1.60;1.50;;;;;;;22.26;62.87;96932.59;5011112;28;20632;-26
2023/10/22 07:29:25;;;;;;;1.80;1.60;;;;;;;22.26;63.10;96927.47;5009263;28;20229;-26
2023/10/22 07:31:52;;;;;;;1.70;1.60;;;;;;;22.28;63.72;96928.38;5012005;28;20202;-30
2023/10/22 07:34:18;;;;;;;3.17;1.87;;;;;;;22.30;63.65;96936.94;5009459;28;20233;-26
2023/10/22 07:36:45;;;;;;;7.87;2.17;;;;;;;22.30;63.55;96936.94;5010946;28;20766;-26
2023/10/22 07:39:12;;;;;;;3.37;1.60;;;;;;;22.30;63.45;96942.06;5008157;28;20202;-26
2023/10/22 07:41:39;;;;;;;2.90;1.73;;;;;;;22.30;63.40;96939.50;5004688;28;20222;-26
2023/10/22 07:44:06;;;;;;;5.93;2.10;;;;;;;22.30;63.42;96943.75;5010852;28;20203;-29
2023/10/22 07:46:32;;;;;;;7.97;1.73;;;;;;;22.30;63.47;96948.88;5011226;28;20300;-29
2023/10/22 07:48:59;;;;;;;3.63;1.80;;;;;;;22.28;63.26;96946.28;5012953;28;20229;-26
2023/10/22 07:51:27;;;;;;;3.93;1.80;;;;;;;22.28;62.40;96953.97;5015751;28;20199;-26
2023/10/22 07:53:54;;;;;;;4.23;1.60;;;;;;;22.27;62.71;96944.56;5007656;28;20195;-26
2023/10/22 07:56:20;;;;;;;4.83;2.00;;;;;;;22.29;62.69;96958.25;5015316;28;20226;-26
2023/10/22 07:58:47;;;;;;;4.87;1.67;;;;;;;22.28;62.69;96955.66;5014486;28;20206;-26
2023/10/22 08:01:14;;;;;;;3.10;1.80;;;;;;;22.28;62.78;96955.66;5011569;28;20225;-26
2023/10/22 08:03:40;;;;;;;3.13;1.93;;;;;;;22.28;62.83;96963.34;5013794;28;20206;-26
2023/10/22 08:06:07;;;;;;;5.23;1.97;;;;;;;22.27;62.97;96959.06;5014208;28;20218;-26
2023/10/22 08:08:34;;;;;;;4.40;1.87;;;;;;;22.28;62.74;96964.22;5013814;28;20206;-26
2023/10/22 08:11:02;;;;;;;3.33;1.57;;;;;;;22.28;62.94;96977.00;5014426;28;20211;-26
2023/10/22 08:13:28;;;;;;;2.90;1.90;;;;;;;22.26;63.00;96965.88;5003216;28;20289;-26
2023/10/22 08:15:56;;;;;;;2.70;1.87;;;;;;;22.29;62.92;96972.75;5014754;28;20289;-26
2023/10/22 08:18:22;;;;;;;4.57;1.80;;;;;;;22.27;63.15;96972.72;5014830;28;20212;-26
2023/10/22 08:20:49;;;;;;;2.33;1.87;;;;;;;22.28;62.98;96978.69;5013286;28;20731;-26
2023/10/22 08:23:17;;;;;;;4.10;1.80;;;;;;;22.28;62.99;96981.25;5014963;28;20202;-28
2023/10/22 08:25:52;;;;;;;3.70;1.70;;;;;;;22.27;62.99;96984.66;4997492;28;20202;-27
2023/10/22 08:28:19;;;;;;;4.30;1.70;;;;;;;22.27;63.00;96988.09;5013075;28;20602;-26
2023/10/22 08:30:47;;;;;;;5.90;2.20;;;;;;;22.27;62.96;96985.53;5014806;28;20210;-26
2023/10/22 08:33:13;;;;;;;2.00;1.50;;;;;;;22.28;62.82;96988.94;5014728;28;20195;-36
2023/10/22 08:35:40;;;;;;;2.53;1.73;;;;;;;22.19;62.96;96968.28;5014817;28;20587;-26
2023/10/22 08:38:07;;;;;;;3.43;1.73;;;;;;;22.28;62.96;96994.06;5015038;28;20260;-26
2023/10/22 08:40:36;;;;;;;3.47;1.77;;;;;;;22.28;62.94;96994.94;5014309;28;20631;-26
2023/10/22 08:43:03;;;;;;;3.60;1.60;;;;;;;22.29;62.71;96995.78;4995115;28;20289;-28
2023/10/22 08:45:29;;;;;;;5.47;1.50;;;;;;;22.28;62.79;97000.03;4994752;28;20206;-26
2023/10/22 08:47:56;;;;;;;2.13;1.57;;;;;;;22.26;62.82;96982.94;5014328;28;20214;-26
2023/10/22 08:50:23;;;;;;;2.83;1.70;;;;;;;22.29;62.89;96990.69;4996528;28;20202;-29
2023/10/22 08:52:49;;;;;;;3.83;1.63;;;;;;;22.29;62.88;96990.69;5009555;28;20229;-26
2023/10/22 08:55:16;;;;;;;2.70;1.47;;;;;;;22.28;62.97;96994.94;5010542;28;20194;-29
2023/10/22 08:57:42;;;;;;;2.37;1.30;;;;;;;22.28;62.92;96994.06;4996513;28;20309;-26
2023/10/22 09:00:09;;;;;;;2.00;1.67;;;;;;;22.28;62.82;96991.50;4989701;28;20230;-30
2023/10/22 09:02:36;;;;;;;2.97;1.57;;;;;;;22.28;62.87;96991.50;4970794;28;20311;-26
2023/10/22 09:05:04;;;;;;;2.63;1.60;;;;;;;22.28;62.77;96996.63;5006982;28;20265;-26
2023/10/22 09:07:53;;;;;;;3.23;1.70;;;;;;;22.28;62.85;96996.63;4974321;28;20638;-26
2023/10/22 09:10:26;;;;;;;2.47;1.40;;;;;;;22.27;62.85;96995.78;5001174;28;20203;-26
2023/10/22 09:12:53;;;;;;;3.23;1.73;;;;;;;22.28;62.72;96996.63;5002620;28;20238;-26
2023/10/22 09:15:19;;;;;;;3.10;1.43;;;;;;;22.20;62.77;96985.41;5007727;28;20673;-26
2023/10/22 09:17:46;;;;;;;5.20;1.60;;;;;;;22.28;62.86;96994.94;5004447;28;20218;-26
2023/10/22 09:20:21;;;;;;;3.60;1.67;;;;;;;22.24;62.72;96994.84;5004760;28;20207;-26
2023/10/22 09:22:48;;;;;;;2.57;1.60;;;;;;;22.29;62.86;96999.19;5011843;28;20230;-26
2023/10/22 09:25:17;;;;;;;3.47;1.70;;;;;;;22.29;62.80;97003.47;5013473;28;20632;-26
2023/10/22 09:27:43;;;;;;;2.87;1.47;;;;;;;22.29;62.74;96996.63;5007667;28;20229;-28
2023/10/22 09:30:11;;;;;;;3.70;1.60;;;;;;;22.29;62.75;97006.03;5013399;28;20202;-26
2023/10/22 09:32:47;;;;;;;2.93;1.63;;;;;;;22.29;62.68;96996.63;5013743;28;20245;-26
2023/10/22 09:35:14;;;;;;;2.97;1.53;;;;;;;22.29;62.72;96991.53;5013451;28;20198;-26
2023/10/22 09:37:50;;;;;;;1.87;1.50;;;;;;;22.29;62.83;96994.09;5013117;28;20214;-26
2023/10/22 09:40:20;;;;;;;2.37;1.70;;;;;;;22.29;62.79;96995.78;4995721;28;20290;-31
2023/10/22 09:42:48;;;;;;;3.30;1.70;;;;;;;22.29;63.05;97000.91;5012692;28;20222;-27
2023/10/22 09:45:15;;;;;;;4.03;1.70;;;;;;;22.30;63.07;97003.50;5013182;28;20202;-28
2023/10/22 09:47:41;;;;;;;3.67;1.40;;;;;;;22.27;63.14;96994.91;4981113;28;20272;-26
2023/10/22 09:50:11;;;;;;;3.57;1.50;;;;;;;22.30;63.08;96998.38;4996047;28;20205;-26
2023/10/22 09:52:41;;;;;;;2.77;1.87;;;;;;;22.29;63.06;96993.25;4996295;28;20552;-27
2023/10/22 09:55:12;;;;;;;3.60;1.70;;;;;;;22.30;62.87;97000.94;5007428;28;20206;-29
2023/10/22 09:57:39;;;;;;;3.30;1.67;;;;;;;22.30;62.87;97000.06;5012958;28;20230;-26
2023/10/22 10:00:12;;;;;;;3.23;1.50;;;;;;;22.29;62.98;96995.78;4995718;28;20202;-29
2023/10/22 10:02:42;;;;;;;4.67;1.60;;;;;;;22.29;62.81;96998.34;5012961;28;20246;-26
2023/10/22 10:05:12;;;;;;;6.57;1.87;;;;;;;22.29;62.89;96995.78;5012955;28;20577;-27
2023/10/22 10:07:39;;;;;;;6.80;1.60;;;;;;;22.28;62.76;96994.06;5012669;28;20360;-28
2023/10/22 10:10:05;;;;;;;3.10;1.60;;;;;;;22.26;62.93;96986.34;5011928;28;20203;-26
2023/10/22 10:12:36;;;;;;;4.50;1.90;;;;;;;22.28;62.93;96997.50;4979062;28;20198;-27
2023/10/22 10:15:03;;;;;;;3.03;1.50;;;;;;;22.28;63.57;96992.38;4979211;28;20226;-26
2023/10/22 10:17:31;;;;;;;5.10;2.07;;;;;;;22.30;64.40;97005.19;5012521;28;20772;-31
2023/10/22 10:20:23;;;;;;;4.20;1.60;;;;;;;22.24;64.56;96990.59;5010965;28;20195;-26
2023/10/22 10:23:01;;;;;;;5.30;1.50;;;;;;;22.33;64.68;97001.00;5005780;28;20304;-26
2023/10/22 10:25:32;;;;;;;2.23;1.60;;;;;;;22.35;64.75;96995.91;4995358;28;20229;-26
2023/10/22 10:28:05;;;;;;;4.50;1.77;;;;;;;22.37;64.67;96994.22;5006605;28;20264;-27
2023/10/22 10:30:33;;;;;;;2.77;1.50;;;;;;;22.38;64.54;97001.91;5013389;28;20262;-28
2023/10/22 10:32:59;;;;;;;5.70;1.43;;;;;;;22.41;64.45;96993.47;5012846;28;20190;-27
2023/10/22 10:35:44;;;;;;;4.83;1.70;;;;;;;22.35;64.59;96985.66;5012874;28;20206;-26
2023/10/22 10:38:13;;;;;;;2.83;1.70;;;;;;;22.42;64.55;96998.59;5012025;28;20194;-26
2023/10/22 10:40:46;;;;;;;2.70;1.50;;;;;;;22.43;64.78;96987.50;5011868;28;20264;-27
2023/10/22 10:43:13;;;;;;;2.53;1.30;;;;;;;22.45;64.85;96990.09;5005444;28;20628;-26
2023/10/22 10:46:00;;;;;;;1.77;1.63;;;;;;;22.45;64.77;96979.84;5012782;28;20202;-26
2023/10/22 10:48:43;;;;;;;2.93;1.60;;;;;;;22.46;64.55;96982.44;4998968;28;20252;-31
2023/10/22 10:51:23;;;;;;;2.00;1.30;;;;;;;22.47;64.57;96978.19;5008706;28;20202;-27
2023/10/22 10:54:12;;;;;;;7.83;1.50;;;;;;;22.47;64.58;96975.63;5010813;28;20286;-26
2023/10/22 10:56:46;;;;;;;3.53;1.50;;;;;;;22.47;64.71;96971.34;5009940;28;20230;-26
2023/10/22 10:59:31;;;;;;;1.63;1.33;;;;;;;22.49;64.65;96976.50;5007170;28;20207;-26
2023/10/22 11:02:06;;;;;;;3.93;1.47;;;;;;;22.48;64.70;96972.22;5012066;28;20218;-32
2023/10/22 11:04:38;;;;;;;3.20;1.50;;;;;;;22.49;64.65;96976.50;5011688;28;20260;-26
2023/10/22 11:07:05;;;;;;;3.33;1.43;;;;;;;22.49;64.73;96981.63;5012063;28;20225;-28
2023/10/22 11:09:51;;;;;;;1.43;1.17;;;;;;;22.50;64.42;96978.25;5011487;28;20280;-26
2023/10/22 11:12:18;;;;;;;2.13;1.40;;;;;;;22.46;64.89;96971.34;4995067;28;20256;-30
2023/10/22 11:14:45;;;;;;;5.27;1.50;;;;;;;22.48;64.96;96980.78;5004029;28;20216;-27
2023/10/22 11:17:12;;;;;;;2.27;1.37;;;;;;;22.49;65.13;96979.06;4978822;28;20697;-27
2023/10/22 11:19:38;;;;;;;3.47;1.30;;;;;;;22.49;64.88;96979.06;5012215;28;20237;-26
2023/10/22 11:22:09;;;;;;;2.43;1.47;;;;;;;22.49;64.89;96982.50;4994250;28;20226;-26
2023/10/22 11:24:36;;;;;;;1.80;1.50;;;;;;;22.49;64.89;96981.63;4994714;28;20616;-26
2023/10/22 11:27:04;;;;;;;2.20;1.43;;;;;;;22.50;64.93;96985.94;5032467;23;20275;-24
2023/10/22 11:29:41;;;;;;;1.47;1.30;;;;;;;22.51;64.94;96990.25;5048171;28;20197;-29
2023/10/22 11:32:12;;;;;;;1.60;1.40;;;;;;;22.52;64.95;96985.16;5047210;28;20601;-24
2023/10/22 11:34:58;;;;;;;4.17;1.13;;;;;;;22.54;64.81;96990.28;5050359;28;20233;-24
2023/10/22 11:37:36;;;;;;;1.57;1.40;;;;;;;22.54;64.63;96995.41;5042113;28;20746;-28